首页
METAR-TAF:

METAR-TAF

机场 :

西沃萨古尔·拉姆古兰爵士国际机场

毛里求斯, 毛里求斯

纬度: 20-26S, 经度: 057-40E, 海拔: 55米

当前天气观测

该预报发布于54分钟前的18:00 UTC
风速6节,风向
温度 28°C
湿度 74%
气压 1016 hPa
能见度10公里或以上
散云层高于1800英尺

METAR: FIMP 231800Z 08006KT 9999 SCT018 28/23 Q1016

时间: 22:54 (18:54 UTC)

预报

该预报发布于1小时和54分钟前的17:00 UTC
预报有效从23日的 18点(UTC)到 25日的 00点(UTC)
风速3节,风向北转西北
能见度10公里或以上
散云层高于1700英尺
短暂存在
从 23日的 23点(UTC)到 24日的 06点(UTC)
能見度: 7000
少量云层高于1000英尺
多云层高于1500英尺
多云层高于5000英尺
小阵雨
成为
从 24日的 18点(UTC)到 24日的 20点(UTC)
风速3节,风向多变

TAF: FIMP 231700Z 2318/2500 33003KT 9999 SCT017 TEMPO 2323/2406 7000 -SHRA FEW010 BKN015 BKN050 BECMG 2418/2420 VRB03KT

超过4000个机场的气象观测和天气预报(METAR&TAF报告)。

可查询的气象台以黄色和红色小点在地图上表示。

将鼠标移到小点上方,可查看气象台名称。

然后点击查看天气观测和预报。

如需切换地图:点击带黑十字的绿色按钮放大地图;点击带横线的绿色按钮缩小地图;或者点击绿色箭头查看邻近地区的地图。


METAR-TAF: